Time;durP1;ratioP1;P1;durP2;ratioP2;P2;SDS_P1;SDS_P2;PMS_P1;PMS_P2;Temp;Humidity;BMP_temperature;BMP_pressure;BME280_temperature;BME280_humidity;BME280_pressure;Samples;Min_cycle;Max_cycle;Signal;HPM_P1;HPM_P2
2022/05/24 00:00:49;;;;;;;8.73;6.47;;;;;;;;;;5133443;27;20474;-74
2022/05/24 00:03:17;;;;;;;8.52;7.03;;;;;;;;;;5128955;27;20098;-75
2022/05/24 00:05:44;;;;;;;9.20;6.82;;;;;;;;;;5128898;27;20050;-76
2022/05/24 00:08:11;;;;;;;12.57;7.60;;;;;;;;;;5128519;27;20034;-73
2022/05/24 00:10:38;;;;;;;9.65;6.82;;;;;;;;;;5128898;27;20466;-71
2022/05/24 00:13:05;;;;;;;10.35;7.60;;;;;;;;;;5150124;27;20023;-74
2022/05/24 00:15:32;;;;;;;11.07;7.32;;;;;;;;;;5137290;27;20088;-75
2022/05/24 00:18:02;;;;;;;10.23;7.20;;;;;;;;;;5133600;27;20050;-71
2022/05/24 00:20:32;;;;;;;13.02;7.55;;;;;;;;;;5133973;27;20397;-73
2022/05/24 00:22:59;;;;;;;12.90;7.18;;;;;;;;;;5133399;27;20027;-72
2022/05/24 00:25:26;;;;;;;9.73;7.10;;;;;;;;;;5128245;27;20091;-72
2022/05/24 00:27:53;;;;;;;13.27;7.43;;;;;;;;;;5128854;27;20102;-74
2022/05/24 00:30:20;;;;;;;12.60;8.07;;;;;;;;;;5128452;27;20094;-74
2022/05/24 00:32:47;;;;;;;11.48;7.32;;;;;;;;;;5128564;27;20430;-74
2022/05/24 00:35:14;;;;;;;11.75;7.55;;;;;;;;;;5131972;27;20023;-71
2022/05/24 00:37:42;;;;;;;10.85;6.93;;;;;;;;;;5133460;27;20504;-75
2022/05/24 00:40:10;;;;;;;10.85;7.25;;;;;;;;;;5133368;27;20556;-71
2022/05/24 00:42:38;;;;;;;11.93;7.53;;;;;;;;;;5132851;27;20023;-71
2022/05/24 00:45:13;;;;;;;8.98;6.88;;;;;;;;;;5134286;27;20121;-76
2022/05/24 00:47:46;;;;;;;11.77;6.93;;;;;;;;;;5147362;27;20105;-75
2022/05/24 00:50:16;;;;;;;13.60;7.82;;;;;;;;;;5149014;27;20034;-70
2022/05/24 00:52:46;;;;;;;10.00;7.13;;;;;;;;;;5149006;27;20079;-71
2022/05/24 00:55:14;;;;;;;10.00;7.30;;;;;;;;;;5150118;27;20019;-68
2022/05/24 00:58:01;;;;;;;15.57;9.30;;;;;;;;;;5156765;27;20022;-69
2022/05/24 01:00:28;;;;;;;10.48;7.60;;;;;;;;;;5116267;27;20519;-69
2022/05/24 01:02:55;;;;;;;11.90;7.93;;;;;;;;;;5156810;27;20049;-71
2022/05/24 01:05:27;;;;;;;13.77;7.77;;;;;;;;;;5150896;27;20033;-72
2022/05/24 01:07:54;;;;;;;11.03;7.23;;;;;;;;;;5157901;27;20019;-76
2022/05/24 01:10:40;;;;;;;14.77;8.00;;;;;;;;;;5153460;27;20106;-71
2022/05/24 01:13:12;;;;;;;11.10;7.23;;;;;;;;;;5152722;27;20048;-75
2022/05/24 01:15:39;;;;;;;9.80;6.97;;;;;;;;;;5152891;27;20361;-73
2022/05/24 01:18:06;;;;;;;15.63;8.07;;;;;;;;;;5149906;27;20520;-74
2022/05/24 01:20:33;;;;;;;11.13;7.30;;;;;;;;;;5136386;27;20033;-73
2022/05/24 01:23:18;;;;;;;10.53;6.10;;;;;;;;;;5147212;27;20076;-74
2022/05/24 01:25:54;;;;;;;11.60;6.47;;;;;;;;;;5137011;27;20347;-74
2022/05/24 01:28:38;;;;;;;11.77;7.03;;;;;;;;;;5136783;27;20019;-74
2022/05/24 01:31:05;;;;;;;12.52;6.18;;;;;;;;;;5136179;27;20065;-74
2022/05/24 01:36:18;;;;;;;11.23;7.10;;;;;;;;;;5132074;27;20493;-74
2022/05/24 01:38:47;;;;;;;11.13;7.83;;;;;;;;;;5131769;27;20023;-73
2022/05/24 01:41:17;;;;;;;11.37;7.37;;;;;;;;;;5131795;27;20144;-74
2022/05/24 01:43:47;;;;;;;12.07;6.90;;;;;;;;;;5136672;27;20016;-74
2022/05/24 01:46:14;;;;;;;10.30;6.77;;;;;;;;;;5136482;27;20102;-74
2022/05/24 01:48:44;;;;;;;9.07;5.83;;;;;;;;;;5136467;27;20019;-74
2022/05/24 01:51:12;;;;;;;10.87;5.97;;;;;;;;;;5153006;27;20042;-74
2022/05/24 01:53:42;;;;;;;11.67;6.87;;;;;;;;;;5156542;27;20027;-74
2022/05/24 01:56:12;;;;;;;9.13;6.30;;;;;;;;;;5151979;27;20129;-74
2022/05/24 01:58:39;;;;;;;12.03;7.13;;;;;;;;;;5152133;27;20046;-74
2022/05/24 02:01:20;;;;;;;9.30;5.80;;;;;;;;;;5151712;27;20400;-74
2022/05/24 02:03:47;;;;;;;14.70;7.57;;;;;;;;;;5152447;27;20022;-74
2022/05/24 02:06:22;;;;;;;18.67;7.10;;;;;;;;;;5156845;27;20063;-74
2022/05/24 02:08:49;;;;;;;13.27;6.90;;;;;;;;;;5156944;27;20023;-74
2022/05/24 02:11:18;;;;;;;17.37;8.53;;;;;;;;;;5156690;27;20027;-74
2022/05/24 02:13:45;;;;;;;11.30;7.37;;;;;;;;;;5156995;27;20098;-74
2022/05/24 02:16:14;;;;;;;18.67;8.80;;;;;;;;;;5153513;27;20480;-74
2022/05/24 02:18:42;;;;;;;18.03;7.97;;;;;;;;;;5151117;27;20026;-74
2022/05/24 02:21:08;;;;;;;14.60;7.83;;;;;;;;;;5151282;27;20027;-74
2022/05/24 02:23:42;;;;;;;12.43;8.00;;;;;;;;;;5138949;27;20098;-74
2022/05/24 02:26:10;;;;;;;14.02;8.18;;;;;;;;;;5130511;27;20034;-74
2022/05/24 02:28:37;;;;;;;20.27;9.17;;;;;;;;;;5135988;27;20085;-73
2022/05/24 02:31:06;;;;;;;15.17;8.30;;;;;;;;;;5135874;27;20106;-74
2022/05/24 02:33:33;;;;;;;10.37;7.87;;;;;;;;;;5135971;27;20027;-74
2022/05/24 02:36:00;;;;;;;15.03;8.87;;;;;;;;;;5135621;27;20019;-73
2022/05/24 02:38:27;;;;;;;16.03;8.90;;;;;;;;;;5135374;27;20030;-73
2022/05/24 02:43:39;;;;;;;13.67;8.53;;;;;;;;;;5130698;27;20538;-74
2022/05/24 02:46:05;;;;;;;12.90;8.17;;;;;;;;;;5140343;27;20023;-74
2022/05/24 02:48:32;;;;;;;16.57;8.90;;;;;;;;;;5147767;27;20093;-73
2022/05/24 02:50:59;;;;;;;18.27;9.33;;;;;;;;;;5156041;27;20496;-74
2022/05/24 02:53:26;;;;;;;14.13;8.77;;;;;;;;;;5155806;27;20015;-74
2022/05/24 02:55:53;;;;;;;13.57;8.47;;;;;;;;;;5153827;27;20473;-73
2022/05/24 02:58:19;;;;;;;14.47;8.93;;;;;;;;;;5155698;27;20027;-74
2022/05/24 03:00:46;;;;;;;12.90;8.43;;;;;;;;;;5155963;27;20484;-74
2022/05/24 03:03:13;;;;;;;10.33;7.07;;;;;;;;;;5150857;27;20504;-74
2022/05/24 03:05:39;;;;;;;12.87;7.70;;;;;;;;;;5151280;27;20373;-74
2022/05/24 03:10:51;;;;;;;11.27;8.13;;;;;;;;;;5145742;27;20114;-74
2022/05/24 03:16:03;;;;;;;;;;;;;;;;;;5135149;27;20074;-74
2022/05/24 03:18:29;;;;;;;13.23;8.20;;;;;;;;;;5134570;27;19910;-74
2022/05/24 03:20:56;;;;;;;15.57;8.57;;;;;;;;;;5134869;27;20120;-74
2022/05/24 03:23:23;;;;;;;11.13;7.37;;;;;;;;;;5134413;27;20485;-74
2022/05/24 03:25:50;;;;;;;13.90;8.47;;;;;;;;;;5129282;27;20369;-74
2022/05/24 03:28:23;;;;;;;13.20;8.03;;;;;;;;;;5129500;27;20102;-74
2022/05/24 03:30:50;;;;;;;9.13;6.53;;;;;;;;;;5129589;27;20012;-74
2022/05/24 03:33:17;;;;;;;12.47;7.93;;;;;;;;;;5129578;27;20525;-74
2022/05/24 03:35:43;;;;;;;22.90;9.43;;;;;;;;;;5133847;27;20072;-74
2022/05/24 03:38:10;;;;;;;13.53;9.03;;;;;;;;;;5134350;27;20023;-74
2022/05/24 03:40:37;;;;;;;15.43;9.53;;;;;;;;;;5135636;27;20382;-74
2022/05/24 03:43:06;;;;;;;12.97;7.63;;;;;;;;;;5153085;27;20050;-74
2022/05/24 03:45:32;;;;;;;16.53;8.60;;;;;;;;;;5153096;27;20069;-74
2022/05/24 03:47:59;;;;;;;12.53;8.50;;;;;;;;;;5150379;27;20027;-74
2022/05/24 03:50:26;;;;;;;10.00;6.93;;;;;;;;;;5150106;27;20060;-74
2022/05/24 03:52:53;;;;;;;13.63;8.20;;;;;;;;;;5149885;27;20026;-74
2022/05/24 03:55:19;;;;;;;12.90;8.33;;;;;;;;;;5149729;27;20097;-74
2022/05/24 03:58:04;;;;;;;13.97;8.90;;;;;;;;;;5153302;27;20167;-74
2022/05/24 04:00:31;;;;;;;;;;;;;;;;;;5151857;27;20064;-74
2022/05/24 04:02:58;;;;;;;14.33;8.70;;;;;;;;;;5140521;27;20259;-74
2022/05/24 04:05:25;;;;;;;12.30;8.50;;;;;;;;;;5134010;27;20087;-74
2022/05/24 04:07:52;;;;;;;14.20;9.43;;;;;;;;;;5134034;27;20384;-74
2022/05/24 04:10:19;;;;;;;14.67;9.00;;;;;;;;;;5129918;27;20021;-74
2022/05/24 04:12:47;;;;;;;15.70;8.17;;;;;;;;;;5128789;27;20027;-74
2022/05/24 04:15:14;;;;;;;15.43;8.97;;;;;;;;;;5132818;27;20389;-74
2022/05/24 04:17:41;;;;;;;16.13;8.40;;;;;;;;;;5149306;27;20026;-74
2022/05/24 04:20:09;;;;;;;15.27;8.33;;;;;;;;;;5152538;27;20019;-74
2022/05/24 04:22:36;;;;;;;13.47;8.60;;;;;;;;;;5150201;27;20015;-74
2022/05/24 04:25:03;;;;;;;12.23;8.30;;;;;;;;;;5144967;27;20130;-74
2022/05/24 04:27:30;;;;;;;12.47;8.50;;;;;;;;;;5139234;27;20027;-74
2022/05/24 04:29:56;;;;;;;16.97;9.37;;;;;;;;;;5132750;27;20068;-74
2022/05/24 04:32:23;;;;;;;12.70;8.40;;;;;;;;;;5130055;27;20035;-74
2022/05/24 04:34:50;;;;;;;12.63;8.83;;;;;;;;;;5127973;27;20022;-74
2022/05/24 04:37:16;;;;;;;14.77;9.03;;;;;;;;;;5128160;27;20024;-74
2022/05/24 04:39:43;;;;;;;12.50;8.27;;;;;;;;;;5128410;27;20027;-74
2022/05/24 04:42:19;;;;;;;12.40;8.20;;;;;;;;;;5130770;27;20019;-74
2022/05/24 04:44:57;;;;;;;14.00;9.10;;;;;;;;;;5133492;27;20023;-74
2022/05/24 04:47:25;;;;;;;12.27;8.70;;;;;;;;;;5133150;27;20023;-75
2022/05/24 04:49:55;;;;;;;15.60;9.40;;;;;;;;;;5133432;27;20059;-74
2022/05/24 04:52:23;;;;;;;14.27;9.97;;;;;;;;;;5133546;28;20097;-74
2022/05/24 04:54:51;;;;;;;14.73;9.20;;;;;;;;;;5129934;28;20112;-74
2022/05/24 04:57:17;;;;;;;15.90;9.20;;;;;;;;;;5139696;27;20050;-74
2022/05/24 04:59:44;;;;;;;13.20;8.93;;;;;;;;;;5148929;27;20111;-74
2022/05/24 05:02:11;;;;;;;16.70;9.47;;;;;;;;;;5148979;27;20363;-74
2022/05/24 05:04:38;;;;;;;14.70;10.27;;;;;;;;;;5151299;27;20049;-74
2022/05/24 05:07:04;;;;;;;15.70;9.30;;;;;;;;;;5153575;27;20072;-74
2022/05/24 05:09:35;;;;;;;18.13;10.60;;;;;;;;;;5153968;27;20053;-74
2022/05/24 05:12:06;;;;;;;16.40;8.93;;;;;;;;;;5143986;27;20027;-74
2022/05/24 05:14:32;;;;;;;12.60;8.73;;;;;;;;;;5132953;28;20094;-74
2022/05/24 05:16:59;;;;;;;14.03;8.80;;;;;;;;;;5150604;27;20044;-74
2022/05/24 05:19:27;;;;;;;18.80;10.03;;;;;;;;;;5148516;27;20027;-74
2022/05/24 05:21:55;;;;;;;14.93;11.00;;;;;;;;;;5148537;27;20035;-74
2022/05/24 05:24:22;;;;;;;14.60;9.77;;;;;;;;;;5129324;27;20015;-74
2022/05/24 05:26:48;;;;;;;16.83;9.60;;;;;;;;;;5129549;28;20130;-74
2022/05/24 05:29:15;;;;;;;17.23;10.13;;;;;;;;;;5132789;28;20027;-74
2022/05/24 05:31:42;;;;;;;16.07;10.07;;;;;;;;;;5133085;28;20023;-74
2022/05/24 05:34:08;;;;;;;16.53;10.67;;;;;;;;;;5133033;28;20497;-74
2022/05/24 05:36:35;;;;;;;14.97;10.23;;;;;;;;;;5132846;28;20046;-74
2022/05/24 05:39:02;;;;;;;16.50;11.20;;;;;;;;;;5137745;27;20530;-75
2022/05/24 05:41:32;;;;;;;16.40;10.77;;;;;;;;;;5149244;27;20026;-75
2022/05/24 05:44:00;;;;;;;15.70;10.33;;;;;;;;;;5152218;27;20101;-75
2022/05/24 05:46:27;;;;;;;14.30;10.07;;;;;;;;;;5151842;27;20346;-71
2022/05/24 05:48:54;;;;;;;16.70;11.13;;;;;;;;;;5152230;27;20111;-76
2022/05/24 05:51:21;;;;;;;15.23;10.70;;;;;;;;;;5157232;27;20022;-76
2022/05/24 05:53:47;;;;;;;17.83;11.40;;;;;;;;;;5156726;27;20098;-76
2022/05/24 05:56:23;;;;;;;13.90;10.60;;;;;;;;;;5157127;27;20449;-76
2022/05/24 05:58:49;;;;;;;13.53;9.47;;;;;;;;;;5157110;27;20495;-76
2022/05/24 06:01:20;;;;;;;13.50;8.63;;;;;;;;;;5155849;27;20073;-76
2022/05/24 06:03:47;;;;;;;16.37;11.00;;;;;;;;;;5151230;27;20022;-76
2022/05/24 06:06:16;;;;;;;14.20;10.27;;;;;;;;;;5150993;27;20031;-76
2022/05/24 06:08:43;;;;;;;17.43;10.27;;;;;;;;;;5150133;27;20550;-76
2022/05/24 06:11:10;;;;;;;13.83;10.23;;;;;;;;;;5131226;27;20027;-76
2022/05/24 06:13:36;;;;;;;15.53;10.90;;;;;;;;;;5135727;27;20042;-76
2022/05/24 06:16:03;;;;;;;14.17;11.10;;;;;;;;;;5135881;27;20423;-76
2022/05/24 06:18:30;;;;;;;14.73;11.17;;;;;;;;;;5135860;27;20019;-76
2022/05/24 06:20:57;;;;;;;14.93;10.13;;;;;;;;;;5135921;27;20026;-76
2022/05/24 06:23:24;;;;;;;19.50;11.00;;;;;;;;;;5135179;27;20084;-76
2022/05/24 06:25:51;;;;;;;17.93;11.00;;;;;;;;;;5130465;27;20508;-76
2022/05/24 06:28:18;;;;;;;16.40;11.20;;;;;;;;;;5130398;27;20030;-76
2022/05/24 06:30:45;;;;;;;16.33;10.63;;;;;;;;;;5130197;27;20053;-76
2022/05/24 06:33:13;;;;;;;14.57;10.30;;;;;;;;;;5130329;27;20429;-77
2022/05/24 06:35:40;;;;;;;15.40;10.77;;;;;;;;;;5135293;27;20477;-76
2022/05/24 06:38:07;;;;;;;15.67;10.37;;;;;;;;;;5135424;27;20090;-76
2022/05/24 06:40:34;;;;;;;16.77;10.47;;;;;;;;;;5151155;27;20448;-76
2022/05/24 06:43:02;;;;;;;16.50;11.07;;;;;;;;;;5156258;27;20038;-76
2022/05/24 06:45:29;;;;;;;17.30;10.60;;;;;;;;;;5156109;27;20106;-76
2022/05/24 06:47:56;;;;;;;16.43;10.47;;;;;;;;;;5150270;27;20087;-76
2022/05/24 06:50:23;;;;;;;14.50;9.63;;;;;;;;;;5150885;27;20015;-76
2022/05/24 06:52:54;;;;;;;15.87;10.57;;;;;;;;;;5149937;27;20369;-76
2022/05/24 06:55:21;;;;;;;15.63;11.30;;;;;;;;;;5141903;27;20030;-76
2022/05/24 06:57:48;;;;;;;14.67;10.20;;;;;;;;;;5155107;27;20030;-76
2022/05/24 07:03:04;;;;;;;17.97;11.00;;;;;;;;;;5155767;27;20091;-76
2022/05/24 07:05:31;;;;;;;14.93;10.10;;;;;;;;;;5155908;27;20015;-76
2022/05/24 07:07:59;;;;;;;15.87;10.40;;;;;;;;;;5155600;27;20019;-76
2022/05/24 07:10:26;;;;;;;13.60;10.17;;;;;;;;;;5150291;27;20029;-76
2022/05/24 07:12:59;;;;;;;14.10;10.63;;;;;;;;;;5150119;27;20046;-76
2022/05/24 07:15:27;;;;;;;14.37;11.47;;;;;;;;;;5150130;27;20018;-76
2022/05/24 07:17:54;;;;;;;12.50;10.17;;;;;;;;;;5150285;27;20054;-76
2022/05/24 07:20:21;;;;;;;14.90;10.20;;;;;;;;;;5154994;27;20088;-75
2022/05/24 07:22:48;;;;;;;17.63;10.00;;;;;;;;;;5155258;27;20030;-75
2022/05/24 07:25:16;;;;;;;17.03;10.53;;;;;;;;;;5144333;27;20039;-75
2022/05/24 07:27:42;;;;;;;16.13;11.27;;;;;;;;;;5134517;27;20378;-76
2022/05/24 07:30:09;;;;;;;18.73;11.97;;;;;;;;;;5134052;27;20024;-76
2022/05/24 07:32:36;;;;;;;14.57;11.13;;;;;;;;;;5129085;27;20042;-76
2022/05/24 07:35:04;;;;;;;16.40;10.93;;;;;;;;;;5129279;27;20550;-76
2022/05/24 07:37:30;;;;;;;14.50;11.43;;;;;;;;;;5128922;27;20023;-76
2022/05/24 07:45:49;;;;;;;17.90;11.82;;;;;;;;;;5134002;27;20039;-76
2022/05/24 07:48:15;;;;;;;19.27;11.87;;;;;;;;;;5133517;27;20466;-76
2022/05/24 07:50:42;;;;;;;14.20;11.07;;;;;;;;;;5134160;27;20083;-76
2022/05/24 07:53:09;;;;;;;14.90;10.67;;;;;;;;;;5133049;27;20023;-75
2022/05/24 07:55:36;;;;;;;15.20;10.97;;;;;;;;;;5141662;27;20544;-76
2022/05/24 07:58:03;;;;;;;13.17;9.70;;;;;;;;;;5149376;27;20472;-76
2022/05/24 08:00:30;;;;;;;13.17;9.97;;;;;;;;;;5149455;27;20027;-76
2022/05/24 08:02:57;;;;;;;16.70;11.37;;;;;;;;;;5149130;27;20495;-76
2022/05/24 08:05:23;;;;;;;17.80;10.57;;;;;;;;;;5154607;27;20018;-76
2022/05/24 08:07:51;;;;;;;14.33;10.50;;;;;;;;;;5154426;27;20392;-76
2022/05/24 08:10:18;;;;;;;17.17;11.63;;;;;;;;;;5154159;27;20467;-76
2022/05/24 08:12:45;;;;;;;13.47;10.30;;;;;;;;;;5154524;27;20043;-76
2022/05/24 08:15:12;;;;;;;15.13;10.07;;;;;;;;;;5154483;27;20025;-76
2022/05/24 08:17:39;;;;;;;22.80;11.57;;;;;;;;;;5148951;27;20429;-76
2022/05/24 08:20:09;;;;;;;14.90;9.73;;;;;;;;;;5148865;27;20022;-76
2022/05/24 08:22:37;;;;;;;13.40;10.40;;;;;;;;;;5148946;27;20568;-76
2022/05/24 08:25:05;;;;;;;13.43;10.10;;;;;;;;;;5139838;27;20381;-77
2022/05/24 08:27:32;;;;;;;15.17;10.00;;;;;;;;;;5133078;27;20109;-76
2022/05/24 08:29:59;;;;;;;15.27;10.47;;;;;;;;;;5133604;27;20095;-76
2022/05/24 08:32:26;;;;;;;18.03;11.60;;;;;;;;;;5133459;27;20049;-76
2022/05/24 08:34:53;;;;;;;16.57;11.27;;;;;;;;;;5133409;27;20522;-76
2022/05/24 08:37:20;;;;;;;15.57;11.43;;;;;;;;;;5133158;27;20171;-75
2022/05/24 08:39:47;;;;;;;14.63;10.67;;;;;;;;;;5137122;27;20506;-76
2022/05/24 08:42:19;;;;;;;15.50;9.43;;;;;;;;;;5148283;27;20030;-76
2022/05/24 08:50:26;;;;;;;16.37;10.57;;;;;;;;;;5154298;27;20487;-76
2022/05/24 08:53:00;;;;;;;14.83;10.57;;;;;;;;;;5153804;27;20021;-76
2022/05/24 08:55:28;;;;;;;17.10;10.80;;;;;;;;;;5138560;27;20034;-75
2022/05/24 08:57:57;;;;;;;20.60;10.67;;;;;;;;;;5133372;28;20283;-76
2022/05/24 09:00:26;;;;;;;16.63;11.90;;;;;;;;;;5133149;27;20045;-76
2022/05/24 09:02:53;;;;;;;18.57;11.67;;;;;;;;;;5127320;28;20019;-76
2022/05/24 09:05:21;;;;;;;16.93;12.07;;;;;;;;;;5127676;28;20068;-76
2022/05/24 09:07:56;;;;;;;16.97;11.60;;;;;;;;;;5127757;28;20059;-76
2022/05/24 09:10:25;;;;;;;15.98;10.10;;;;;;;;;;5128169;28;20102;-76
2022/05/24 09:13:10;;;;;;;19.53;11.47;;;;;;;;;;5132869;28;20038;-76
2022/05/24 09:15:52;;;;;;;17.30;11.33;;;;;;;;;;5133184;27;20023;-76
2022/05/24 09:18:26;;;;;;;15.63;10.80;;;;;;;;;;5137284;27;20027;-75
2022/05/24 09:20:54;;;;;;;25.30;11.32;;;;;;;;;;5137159;27;20020;-75
2022/05/24 09:23:43;;;;;;;16.77;11.10;;;;;;;;;;5134740;27;20069;-76
2022/05/24 09:26:11;;;;;;;16.10;10.63;;;;;;;;;;5151519;27;20018;-76
2022/05/24 09:28:52;;;;;;;15.53;11.47;;;;;;;;;;5152227;27;20091;-76
2022/05/24 09:31:37;;;;;;;21.73;13.70;;;;;;;;;;5152395;27;20369;-76
2022/05/24 09:34:07;;;;;;;23.73;13.30;;;;;;;;;;5155338;27;20098;-76
2022/05/24 09:36:36;;;;;;;17.07;11.80;;;;;;;;;;5157572;27;20058;-76
2022/05/24 09:39:05;;;;;;;18.20;12.40;;;;;;;;;;5157573;27;20027;-76
2022/05/24 09:41:31;;;;;;;16.83;12.10;;;;;;;;;;5157449;27;20101;-76
2022/05/24 09:44:16;;;;;;;14.73;9.83;;;;;;;;;;5156954;27;20018;-76
2022/05/24 09:46:44;;;;;;;18.95;12.65;;;;;;;;;;5152824;27;20061;-76
2022/05/24 09:49:19;;;;;;;16.27;11.40;;;;;;;;;;5151864;27;20087;-76
2022/05/24 09:51:47;;;;;;;17.87;12.70;;;;;;;;;;5151800;27;20075;-76
2022/05/24 09:54:18;;;;;;;20.57;12.13;;;;;;;;;;5144379;27;20099;-76
2022/05/24 09:57:07;;;;;;;20.30;11.27;;;;;;;;;;5134872;27;20031;-76
2022/05/24 09:59:35;;;;;;;17.50;11.73;;;;;;;;;;5123437;27;20443;-76
2022/05/24 10:02:02;;;;;;;18.60;13.40;;;;;;;;;;5142626;27;20023;-76
2022/05/24 10:04:40;;;;;;;18.50;11.90;;;;;;;;;;5156677;27;20026;-76
2022/05/24 10:07:22;;;;;;;16.83;12.03;;;;;;;;;;5157190;27;20427;-76
2022/05/24 10:09:51;;;;;;;16.13;11.47;;;;;;;;;;5151382;27;20481;-76
2022/05/24 10:12:30;;;;;;;17.90;12.47;;;;;;;;;;5151590;27;20473;-76
2022/05/24 10:14:57;;;;;;;19.60;12.23;;;;;;;;;;5151500;27;20034;-76
2022/05/24 10:17:27;;;;;;;17.23;12.03;;;;;;;;;;5151301;27;20088;-76
2022/05/24 10:20:03;;;;;;;16.67;11.13;;;;;;;;;;5156602;27;20030;-76
2022/05/24 10:22:44;;;;;;;18.63;12.40;;;;;;;;;;5156585;27;20019;-76
2022/05/24 10:25:15;;;;;;;18.40;11.63;;;;;;;;;;5156241;27;20074;-76
2022/05/24 10:28:00;;;;;;;18.20;13.03;;;;;;;;;;5155129;27;20035;-76
2022/05/24 10:30:31;;;;;;;15.75;11.35;;;;;;;;;;5154531;27;20102;-76
2022/05/24 10:39:14;;;;;;;16.10;12.00;;;;;;;;;;5130246;27;20042;-76
2022/05/24 10:41:43;;;;;;;19.43;12.40;;;;;;;;;;5134429;27;20049;-76
2022/05/24 10:44:15;;;;;;;15.00;11.87;;;;;;;;;;5135564;27;20027;-76
2022/05/24 10:46:45;;;;;;;15.77;11.50;;;;;;;;;;5135544;27;20389;-76
2022/05/24 10:49:51;;;;;;;17.23;11.83;;;;;;;;;;5135234;27;20049;-76
2022/05/24 10:52:35;;;;;;;19.97;14.10;;;;;;;;;;5031149;28;20025;-75
2022/05/24 10:55:31;;;;;;;17.17;12.85;;;;;;;;;;5026155;28;20032;-76
2022/05/24 10:58:02;;;;;;;21.75;13.48;;;;;;;;;;5096939;27;20069;-76
2022/05/24 11:00:34;;;;;;;19.03;12.87;;;;;;;;;;5129906;27;20148;-77
2022/05/24 11:03:12;;;;;;;19.97;10.77;;;;;;;;;;5145088;27;20034;-76
2022/05/24 11:05:47;;;;;;;15.23;10.87;;;;;;;;;;5155790;27;20015;-76
2022/05/24 11:08:13;;;;;;;;;;;;;;;;;;5156033;27;20073;-76
2022/05/24 11:10:41;;;;;;;15.30;10.83;;;;;;;;;;5155722;27;19926;-75
2022/05/24 11:13:12;;;;;;;17.03;11.80;;;;;;;;;;5154875;27;20023;-76
2022/05/24 11:15:45;;;;;;;22.60;12.80;;;;;;;;;;5152911;27;20073;-76
2022/05/24 11:18:22;;;;;;;17.93;13.20;;;;;;;;;;5150141;27;20026;-75
2022/05/24 11:20:54;;;;;;;20.17;14.03;;;;;;;;;;5150044;27;20018;-75
2022/05/24 11:23:34;;;;;;;21.10;14.67;;;;;;;;;;5131795;27;20442;-77
2022/05/24 11:26:20;;;;;;;20.17;13.93;;;;;;;;;;5132680;27;20019;-76
2022/05/24 11:28:55;;;;;;;18.77;11.37;;;;;;;;;;5134396;27;20026;-76
2022/05/24 11:31:24;;;;;;;21.85;13.43;;;;;;;;;;5147711;27;20026;-76
2022/05/24 11:33:51;;;;;;;19.33;13.27;;;;;;;;;;5155374;27;20030;-77
2022/05/24 11:36:37;;;;;;;18.00;13.00;;;;;;;;;;5155099;27;20473;-76
2022/05/24 11:39:08;;;;;;;19.83;13.45;;;;;;;;;;5149340;27;20026;-76
2022/05/24 11:41:35;;;;;;;21.87;13.70;;;;;;;;;;5149656;27;20018;-77
2022/05/24 11:44:04;;;;;;;19.87;13.77;;;;;;;;;;5149671;27;20437;-76
2022/05/24 11:46:37;;;;;;;22.30;13.77;;;;;;;;;;5149496;27;20027;-76
2022/05/24 11:49:05;;;;;;;18.27;13.03;;;;;;;;;;5154595;27;20487;-76
2022/05/24 11:51:44;;;;;;;21.40;13.87;;;;;;;;;;5153490;27;20026;-75
2022/05/24 11:54:21;;;;;;;16.53;12.17;;;;;;;;;;5133915;27;20048;-77
2022/05/24 11:56:55;;;;;;;20.47;13.60;;;;;;;;;;5134184;27;20031;-76
2022/05/24 11:59:40;;;;;;;18.17;13.50;;;;;;;;;;5133192;27;20024;-76
2022/05/24 12:02:26;;;;;;;17.77;12.68;;;;;;;;;;5128596;27;20465;-76
2022/05/24 12:07:56;;;;;;;26.80;14.43;;;;;;;;;;5128495;27;20076;-76
2022/05/24 12:10:26;;;;;;;22.43;14.17;;;;;;;;;;5131370;27;20039;-75
2022/05/24 12:12:58;;;;;;;22.37;15.27;;;;;;;;;;5133957;27;20019;-76
2022/05/24 12:15:26;;;;;;;32.40;15.60;;;;;;;;;;5133751;27;20428;-76
2022/05/24 12:18:12;;;;;;;25.50;15.47;;;;;;;;;;5133924;27;20429;-76
2022/05/24 12:20:39;;;;;;;28.73;15.03;;;;;;;;;;5133633;27;20019;-76
2022/05/24 12:23:06;;;;;;;25.10;16.27;;;;;;;;;;5145846;27;20030;-76
2022/05/24 12:25:51;;;;;;;26.37;16.90;;;;;;;;;;5149087;27;20105;-76
2022/05/24 12:28:18;;;;;;;27.75;14.68;;;;;;;;;;5148885;27;20019;-76
2022/05/24 12:30:48;;;;;;;21.30;13.57;;;;;;;;;;5148057;27;20042;-76
2022/05/24 12:33:26;;;;;;;25.93;15.60;;;;;;;;;;5152802;27;20435;-77
2022/05/24 12:35:55;;;;;;;25.67;16.30;;;;;;;;;;5154099;27;20057;-76
2022/05/24 12:38:23;;;;;;;26.80;16.57;;;;;;;;;;5154072;27;20038;-76
2022/05/24 12:40:50;;;;;;;24.40;15.23;;;;;;;;;;5154090;27;20030;-76
2022/05/24 12:43:18;;;;;;;24.53;14.97;;;;;;;;;;5153533;27;20026;-76
2022/05/24 12:45:47;;;;;;;27.97;17.27;;;;;;;;;;5149387;27;20458;-75
2022/05/24 12:48:23;;;;;;;32.93;17.60;;;;;;;;;;5148599;27;20095;-76
2022/05/24 12:50:49;;;;;;;26.60;17.53;;;;;;;;;;5147828;27;20015;-76
2022/05/24 12:53:21;;;;;;;30.00;17.53;;;;;;;;;;5130443;27;20023;-75
2022/05/24 12:55:56;;;;;;;31.83;18.03;;;;;;;;;;5131858;28;20027;-76
2022/05/24 12:58:25;;;;;;;25.23;16.95;;;;;;;;;;5133312;28;20046;-75
2022/05/24 13:00:52;;;;;;;21.67;16.00;;;;;;;;;;5133222;28;20031;-76
2022/05/24 13:03:23;;;;;;;28.40;16.57;;;;;;;;;;5149823;27;20027;-76
2022/05/24 13:05:55;;;;;;;25.90;15.70;;;;;;;;;;5153971;27;20045;-76
2022/05/24 13:08:22;;;;;;;31.30;17.10;;;;;;;;;;5148112;27;20034;-76
2022/05/24 13:10:49;;;;;;;24.47;15.77;;;;;;;;;;5146412;27;20030;-75
2022/05/24 13:13:18;;;;;;;24.30;15.80;;;;;;;;;;5148367;27;20022;-76
2022/05/24 13:15:49;;;;;;;29.60;16.87;;;;;;;;;;5148242;27;20102;-76
2022/05/24 13:18:17;;;;;;;25.97;17.27;;;;;;;;;;5152797;27;20054;-76
2022/05/24 13:20:46;;;;;;;27.77;18.43;;;;;;;;;;5153679;27;20026;-75
2022/05/24 13:23:15;;;;;;;32.60;21.20;;;;;;;;;;5153273;27;20106;-77
2022/05/24 13:25:48;;;;;;;35.50;22.30;;;;;;;;;;5153672;27;20074;-77
2022/05/24 13:28:31;;;;;;;31.07;20.03;;;;;;;;;;5153612;27;20026;-76
2022/05/24 13:33:48;;;;;;;36.28;21.20;;;;;;;;;;5129387;27;20092;-76
2022/05/24 13:36:20;;;;;;;33.47;19.83;;;;;;;;;;5127431;28;20042;-76
2022/05/24 13:38:52;;;;;;;29.47;18.43;;;;;;;;;;5134734;27;20023;-76
2022/05/24 13:41:38;;;;;;;20.90;14.37;;;;;;;;;;5153697;27;20018;-76
2022/05/24 13:44:19;;;;;;;29.63;16.07;;;;;;;;;;5153524;27;20088;-76
2022/05/24 13:47:20;;;;;;;24.30;16.43;;;;;;;;;;5153284;27;20023;-76
2022/05/24 13:49:48;;;;;;;27.07;15.23;;;;;;;;;;5069537;28;20032;-76
2022/05/24 13:52:28;;;;;;;22.63;14.77;;;;;;;;;;5134296;27;20034;-76
2022/05/24 13:55:11;;;;;;;30.60;16.10;;;;;;;;;;5148070;27;20017;-76
2022/05/24 13:57:58;;;;;;;25.83;14.47;;;;;;;;;;5148216;27;20545;-76
2022/05/24 14:00:27;;;;;;;21.83;14.60;;;;;;;;;;5148040;27;20015;-76
2022/05/24 14:03:13;;;;;;;22.27;15.43;;;;;;;;;;5137398;27;20474;-75
2022/05/24 14:05:39;;;;;;;;;;;;;;;;;;5136906;27;20100;-75
2022/05/24 14:08:09;;;;;;;23.13;14.27;;;;;;;;;;5137202;27;19942;-76
2022/05/24 14:10:40;;;;;;;24.03;15.00;;;;;;;;;;5147556;27;20058;-75
2022/05/24 14:13:10;;;;;;;24.63;15.47;;;;;;;;;;5136078;27;20486;-75
2022/05/24 14:15:39;;;;;;;17.77;12.83;;;;;;;;;;5134907;27;20029;-76
2022/05/24 14:18:06;;;;;;;19.40;14.10;;;;;;;;;;5145421;27;20019;-75
2022/05/24 14:20:33;;;;;;;20.60;14.60;;;;;;;;;;5130450;27;20371;-75
2022/05/24 14:23:01;;;;;;;24.07;15.30;;;;;;;;;;5134364;27;20033;-75
2022/05/24 14:25:28;;;;;;;20.93;14.97;;;;;;;;;;5135343;27;20026;-75
2022/05/24 14:27:55;;;;;;;21.83;16.40;;;;;;;;;;5135914;27;20022;-75
2022/05/24 14:30:22;;;;;;;17.73;12.80;;;;;;;;;;5135908;27;20058;-75
2022/05/24 14:32:49;;;;;;;21.33;14.53;;;;;;;;;;5135235;27;20109;-75
2022/05/24 14:35:15;;;;;;;19.87;14.13;;;;;;;;;;5148143;27;20416;-75
2022/05/24 14:37:42;;;;;;;20.10;14.87;;;;;;;;;;5130455;27;20042;-75
2022/05/24 14:40:10;;;;;;;20.43;13.53;;;;;;;;;;5130048;27;20047;-76
2022/05/24 14:42:39;;;;;;;20.40;14.20;;;;;;;;;;5129538;27;20019;-75
2022/05/24 14:45:07;;;;;;;21.47;15.70;;;;;;;;;;5130185;27;20504;-75
2022/05/24 14:47:34;;;;;;;25.77;15.53;;;;;;;;;;5134452;27;20023;-75
2022/05/24 14:50:01;;;;;;;21.47;14.20;;;;;;;;;;5135214;27;20027;-75
2022/05/24 14:52:28;;;;;;;17.60;13.23;;;;;;;;;;5138284;27;20345;-75
2022/05/24 14:54:56;;;;;;;25.13;15.97;;;;;;;;;;5135623;27;20102;-75
2022/05/24 14:57:22;;;;;;;17.37;14.27;;;;;;;;;;5135326;27;20558;-76
2022/05/24 14:59:51;;;;;;;18.27;14.40;;;;;;;;;;5130850;27;20019;-76
2022/05/24 15:02:18;;;;;;;18.43;13.77;;;;;;;;;;5129579;27;21561;-75
2022/05/24 15:04:45;;;;;;;17.60;13.73;;;;;;;;;;5129317;27;20110;-75
2022/05/24 15:15:30;;;;;;;19.67;15.73;;;;;;;;;;5113821;28;20508;-75
2022/05/24 15:17:57;;;;;;;21.02;15.82;;;;;;;;;;5114362;28;20429;-76
2022/05/24 15:20:25;;;;;;;24.30;15.18;;;;;;;;;;5120131;27;20011;-76
2022/05/24 15:23:00;;;;;;;20.80;15.63;;;;;;;;;;5129299;27;20015;-76
2022/05/24 15:25:32;;;;;;;20.27;15.00;;;;;;;;;;5129338;27;20374;-75